PAGINA EN CONSTRUCCIÓN

DISCULPEN POSIBLES FALLOS



Daganzo more information Daganzo


Meteosat more information blitzortung!


aviso para Lluvia  rain snow radar


Visita nuestra red de sitios de meteo:

Documentation for the template used

MeteoibericaRed estaciones Meteorologicas



Lluvia Desde: 18-11-2018 11:00 Hasta: 19-11-2018 04:59 Advertencias para: Lluvia Nivel: Amarillo info button

Pagina Historial Weather Underground texto

Diario Resumen Noviembre 18, 2018 Unidades:  Métrico    impérial   Tanto
« Anterior Dia
Siguiente Dia »
Diario Semana Mensual Anual Personalizada
  Actual: Alto: Baja: Media:
Temperatura: -12.2 °C -17.8 °C -13.1 °C -11.9 °C
Punto de rocío: -13.2 °C -17.8 °C -14 °C -12.9 °C
Humedad: 89 % Humidity % 78 % 88 %
Velocidad del Viento: 17.9 km/h 0 km/h 2.6 km/h 16.6 km/h
Ráfagas de viento: 11.6 km/h 0 km/h - -
Viento:WNW - - ENE
Pression baro: 33985.3 hPa 0 hPa 33981.9 hPa -
Précipitaciones: 116.84 mm      
Historical Graphs
 
 
Datos de tabla para Noviembre 18, 2018
Tiempo Temperatura Punto de rocío Pression baro Viento Velocidad del Viento Ráfagas de viento Humedad Las precipitaciones Rate ( Hora )
-17.8 °C -17.8 °C 0 hPa Calm     Humidity % 0 mm
00:00 -12.1 °C -13 °C 34225.7 hPa North 2.6 km/h 7.7 km/h 89 % 0 mm
00:05 -12.1 °C -13.1 °C 34225.7 hPa North 4.2 km/h 1.8 km/h 89 % 0 mm
00:10 -12.3 °C -13.2 °C 34225.7 hPa NW 9 km/h 4.2 km/h 89 % 0 mm
00:15 -12.3 °C -13.2 °C 34229.1 hPa North 9 km/h 5.6 km/h 89 % 0 mm
00:20 -12.3 °C -13.3 °C 34225.7 hPa North 9 km/h 4.2 km/h 89 % 0 mm
00:25 -12.4 °C -13.3 °C 34229.1 hPa North 9 km/h 5.6 km/h 89 % 0 mm
00:30 -12.3 °C -13.3 °C 34225.7 hPa North 9.8 km/h 8 km/h 89 % 0 mm
00:35 -12.2 °C -13.2 °C 34222.3 hPa North 11.9 km/h 8 km/h 89 % 0 mm
00:40 -12.3 °C -13.3 °C 34222.3 hPa North 9.8 km/h 8 km/h 89 % 0 mm
00:45 -12.5 °C -13.4 °C 34222.3 hPa North 15 km/h 8 km/h 89 % 0 mm
00:50 -12.6 °C -13.6 °C 34218.9 hPa North 9.8 km/h 5.6 km/h 89 % 0 mm
00:55 -12.6 °C -13.6 °C 34218.9 hPa North 9.8 km/h 5.6 km/h 89 % 0 mm
01:00 -12.5 °C -13.4 °C 34222.3 hPa North 9 km/h 4.2 km/h 89 % 0 mm
01:05 -12.5 °C -13.4 °C 34215.5 hPa East 11.6 km/h 5.6 km/h 89 % 0 mm
01:10 -12.4 °C -13.4 °C 34218.9 hPa North 11.9 km/h 5.6 km/h 89 % 0 mm
01:15 -12.3 °C -13.2 °C 34212.1 hPa East 11.6 km/h 8 km/h 89 % 0 mm
01:20 -12.1 °C -13.1 °C 34212.1 hPa East 11.6 km/h 5.6 km/h 89 % 0 mm
01:25 -11.9 °C -12.9 °C 34208.8 hPa East 11.9 km/h 5.6 km/h 89 % 0 mm
01:30 -11.9 °C -12.8 °C 34208.8 hPa East 9 km/h 4.2 km/h 89 % 0 mm
01:35 -11.9 °C -12.8 °C 34208.8 hPa SE 9 km/h 4.2 km/h 89 % 0 mm
01:40 -11.9 °C -12.8 °C 34202 hPa SE 6 km/h 1.8 km/h 89 % 0 mm
01:45 -11.9 °C -12.9 °C 34202 hPa East 9 km/h 5.6 km/h 89 % 0 mm
01:50 -11.9 °C -12.9 °C 34198.6 hPa East 9 km/h 4.2 km/h 89 % 0 mm
01:55 -12 °C -12.9 °C 34198.6 hPa East 9.8 km/h 5.6 km/h 89 % 0 mm
02:00 -12 °C -12.9 °C 34198.6 hPa East 9 km/h 4.2 km/h 89 % 0 mm
02:05 -12.2 °C -13.1 °C 34191.8 hPa North 8 km/h 5.6 km/h 89 % 0 mm
02:10 -12.3 °C -13.3 °C 34188.4 hPa North 9 km/h 5.6 km/h 89 % 0 mm
02:15 -12.4 °C -13.4 °C 34185.1 hPa North 9.8 km/h 5.6 km/h 89 % 0 mm
02:20 -12.5 °C -13.4 °C 34185.1 hPa North 14 km/h 5.6 km/h 89 % 0 mm
02:25 -12.6 °C -13.6 °C 34178.3 hPa North 15 km/h 5.6 km/h 89 % 0 mm
02:30 -12.7 °C -13.7 °C 34178.3 hPa North 11.9 km/h 8 km/h 89 % 0 mm
02:35 -12.8 °C -13.8 °C 34174.9 hPa North 14 km/h 4.2 km/h 89 % 0 mm
02:40 -12.8 °C -13.7 °C 34174.9 hPa North 11.9 km/h 8 km/h 89 % 0 mm
02:45 -12.8 °C -13.7 °C 34178.3 hPa North 11.6 km/h 5.6 km/h 89 % 0 mm
02:50 -12.8 °C -13.8 °C 34174.9 hPa North 11.9 km/h 8 km/h 89 % 0 mm
02:55 -12.9 °C -13.9 °C 34174.9 hPa North 15 km/h 9.8 km/h 89 % 0 mm
03:00 -13.1 °C -14 °C 34174.9 hPa West 15.6 km/h 11.6 km/h 89 % 0 mm
03:05 -13.1 °C -14 °C 34174.9 hPa North 15.6 km/h 11.6 km/h 89 % 0 mm
03:10 -13 °C -13.9 °C 34178.3 hPa North 15 km/h 5.6 km/h 89 % 0 mm
03:15 -12.9 °C -13.9 °C 34171.5 hPa North 9.8 km/h 5.6 km/h 89 % 0 mm
03:20 -12.9 °C -13.8 °C 34171.5 hPa North 11.9 km/h 8 km/h 89 % 0 mm
03:25 -12.8 °C -13.8 °C 34168.1 hPa North 11.9 km/h 5.6 km/h 89 % 0 mm
03:30 -12.8 °C -13.8 °C 34161.4 hPa North 11.9 km/h 9.8 km/h 89 % 0 mm
03:35 -12.8 °C -13.7 °C 34168.1 hPa North 9.8 km/h 5.6 km/h 89 % 0 mm
03:40 -12.8 °C -13.7 °C 34161.4 hPa North 14 km/h 9.8 km/h 89 % 0 mm
03:45 -12.9 °C -13.8 °C 34161.4 hPa North 11.9 km/h 8 km/h 89 % 0 mm
03:50 -12.8 °C -13.8 °C 34164.7 hPa North 11.9 km/h 9.8 km/h 89 % 0 mm
03:55 -12.9 °C -13.8 °C 34158 hPa North 11.9 km/h 5.6 km/h 89 % 0 mm
04:00 -12.8 °C -13.8 °C 34154.6 hPa North 9.8 km/h 5.6 km/h 89 % 0 mm
04:05 -12.8 °C -13.7 °C 34151.2 hPa North 11.9 km/h 5.6 km/h 89 % 0 mm
04:10 -12.7 °C -13.7 °C 34151.2 hPa North 11.9 km/h 5.6 km/h 89 % 0 mm
04:15 -12.7 °C -13.7 °C 34144.4 hPa North 9.8 km/h 8 km/h 89 % 0 mm
04:20 -12.7 °C -13.7 °C 34144.4 hPa North 14 km/h 9.8 km/h 89 % 0 mm
04:25 -12.7 °C -13.6 °C 34141 hPa North 11.9 km/h 8 km/h 89 % 0 mm
04:30 -12.6 °C -13.6 °C 34141 hPa North 9.8 km/h 5.6 km/h 89 % 0 mm
04:35 -12.6 °C -13.5 °C 34141 hPa North 15 km/h 8 km/h 89 % 0 mm
04:40 -12.6 °C -13.5 °C 34137.7 hPa North 17.9 km/h 11.6 km/h 89 % 0 mm
04:45 -12.5 °C -13.4 °C 34134.3 hPa North 17.9 km/h 8 km/h 89 % 0 mm
04:50 -12.5 °C -13.4 °C 34130.9 hPa North 17.9 km/h 11.6 km/h 89 % 0 mm
04:55 -12.4 °C -13.4 °C 34130.9 hPa North 20.9 km/h 9.8 km/h 89 % 0 mm
05:00 -12.4 °C -13.4 °C 34127.5 hPa North 15 km/h 8 km/h 89 % 0 mm
05:05 -12.4 °C -13.4 °C 34130.9 hPa North 15 km/h 8 km/h 89 % 0 mm
05:10 -12.4 °C -13.4 °C 34127.5 hPa North 11.9 km/h 8 km/h 89 % 0 mm
05:15 -12.4 °C -13.4 °C 34127.5 hPa North 11.9 km/h 8 km/h 89 % 0 mm
05:20 -12.4 °C -13.3 °C 34124.1 hPa North 15 km/h 9.8 km/h 89 % 0 mm
05:25 -12.3 °C -13.3 °C 34120.7 hPa North 15.6 km/h 9.8 km/h 89 % 0 mm
05:30 -12.4 °C -13.3 °C 34117.3 hPa WNW 17.9 km/h 9.8 km/h 89 % 0 mm
05:35 -12.3 °C -13.3 °C 34117.3 hPa North 17.9 km/h 8 km/h 89 % 0 mm
05:40 -12.3 °C -13.3 °C 34117.3 hPa North 17.9 km/h 8 km/h 89 % 0 mm
05:45 -12.3 °C -13.2 °C 34114 hPa North 11.9 km/h 5.6 km/h 89 % 0 mm
05:50 -12.3 °C -13.3 °C 34114 hPa North 15 km/h 8 km/h 89 % 0 mm
05:55 -12.3 °C -13.3 °C 34110.6 hPa North 15 km/h 4.2 km/h 89 % 0 mm
06:00 -12.3 °C -13.3 °C 34110.6 hPa North 15 km/h 8 km/h 89 % 0 mm
06:05 -12.3 °C -13.3 °C 34107.2 hPa North 9 km/h 5.6 km/h 89 % 0 mm
06:10 -12.4 °C -13.3 °C 34107.2 hPa North 15 km/h 8 km/h 89 % 0 mm
06:15 -12.4 °C -13.3 °C 34107.2 hPa North 11.6 km/h 5.6 km/h 89 % 0 mm
06:20 -12.4 °C -13.4 °C 34103.8 hPa North 9.8 km/h 4.2 km/h 89 % 0 mm
06:25 -12.5 °C -13.4 °C 34103.8 hPa North 9 km/h 4.2 km/h 89 % 0 mm
06:30 -12.5 °C -13.4 °C 34103.8 hPa West 9.8 km/h 5.6 km/h 89 % 0 mm
06:35 -12.5 °C -13.4 °C 34100.4 hPa North 9.8 km/h 5.6 km/h 89 % 0 mm
06:40 -12.5 °C -13.4 °C 34103.8 hPa West 9 km/h 1.8 km/h 89 % 0 mm
06:45 -12.5 °C -13.4 °C 34100.4 hPa North 9.8 km/h 5.6 km/h 89 % 0 mm
06:50 -12.6 °C -13.5 °C 34100.4 hPa North 9 km/h 4.2 km/h 89 % 0 mm
06:55 -12.6 °C -13.5 °C 34103.8 hPa North 9 km/h 4.2 km/h 89 % 0 mm
07:00 -12.6 °C -13.5 °C 34100.4 hPa North 11.9 km/h 8 km/h 89 % 0 mm
07:05 -12.6 °C -13.5 °C 34097 hPa North 11.9 km/h 8 km/h 89 % 0 mm
07:10 -12.6 °C -13.5 °C 34100.4 hPa North 15 km/h 8 km/h 89 % 0 mm
07:15 -12.6 °C -13.5 °C 34100.4 hPa North 15 km/h 8 km/h 89 % 0 mm
07:20 -12.6 °C -13.5 °C 34097 hPa North 14 km/h 8 km/h 89 % 0 mm
07:25 -12.5 °C -13.4 °C 34097 hPa North 15 km/h 8 km/h 89 % 0 mm
07:30 -12.4 °C -13.4 °C 34097 hPa North 15 km/h 5.6 km/h 89 % 0 mm
07:35 -12.4 °C -13.3 °C 34097 hPa North 15 km/h 8 km/h 89 % 0 mm
07:40 -12.4 °C -13.3 °C 34097 hPa North 15 km/h 8 km/h 89 % 0 mm
07:45 -12.3 °C -13.2 °C 34097 hPa North 17.9 km/h 8 km/h 89 % 0 mm
07:50 -12.3 °C -13.2 °C 34097 hPa West 15 km/h 9.8 km/h 89 % 0 mm
07:55 -12.3 °C -13.2 °C 34100.4 hPa North 11.9 km/h 1.8 km/h 89 % 0 mm
08:00 -12.3 °C -13.2 °C 34093.6 hPa North 15 km/h 1.8 km/h 89 % 0 mm
08:05 -12.3 °C -13.2 °C 34093.6 hPa North 9 km/h 4.2 km/h 89 % 0 mm
08:10 -12.3 °C -13.3 °C 34093.6 hPa North 9 km/h 5.6 km/h 89 % 0 mm
08:15 -12.3 °C -13.3 °C 34093.6 hPa North 9 km/h 4.2 km/h 89 % 0 mm
08:20 -12.3 °C -13.3 °C 34093.6 hPa North 9 km/h 5.6 km/h 89 % 0 mm
08:25 -12.3 °C -13.3 °C 34093.6 hPa North 9.8 km/h 5.6 km/h 89 % 0 mm
08:30 -12.3 °C -13.2 °C 34093.6 hPa North 15 km/h 5.6 km/h 89 % 0 mm
08:35 -12.2 °C -13.2 °C 34093.6 hPa North 17.9 km/h 8 km/h 89 % 0 mm
08:40 -12.2 °C -13.2 °C 34093.6 hPa NW 15 km/h 9.8 km/h 89 % 0 mm
08:45 -12.2 °C -13.2 °C 34093.6 hPa North 20.9 km/h 11.6 km/h 89 % 0 mm
08:50 -12.3 °C -13.2 °C 34090.2 hPa North 15 km/h 5.6 km/h 89 % 0 mm
08:55 -12.3 °C -13.2 °C 34097 hPa North 9 km/h 5.6 km/h 89 % 0 mm
09:00 -12.3 °C -13.2 °C 34093.6 hPa North 15 km/h 9.8 km/h 89 % 0 mm
09:05 -12.3 °C -13.2 °C 34093.6 hPa North 15 km/h 8 km/h 89 % 0 mm
09:10 -12.2 °C -13.2 °C 34093.6 hPa North 15.6 km/h 9.8 km/h 89 % 0 mm
09:15 -12.2 °C -13.2 °C 34090.2 hPa North 9.8 km/h 5.6 km/h 89 % 0 mm
09:20 -12.2 °C -13.2 °C 34093.6 hPa North 17.9 km/h 9.8 km/h 89 % 0 mm
09:25 -12.2 °C -13.1 °C 34090.2 hPa North 14 km/h 8 km/h 89 % 0 mm
09:30 -12.1 °C -13.1 °C 34093.6 hPa West 11.9 km/h 4.2 km/h 89 % 0 mm
09:35 -12.1 °C -13 °C 34093.6 hPa North 20.9 km/h 8 km/h 89 % 0 mm
09:40 -12 °C -12.9 °C 34093.6 hPa West 17.9 km/h 9.8 km/h 89 % 0 mm
09:45 -11.9 °C -12.9 °C 34090.2 hPa North 15 km/h 8 km/h 89 % 0 mm
09:50 -11.9 °C -12.8 °C 34090.2 hPa North 15 km/h 9.8 km/h 89 % 0 mm
09:55 -11.8 °C -12.8 °C 34086.9 hPa East 17.9 km/h 1.8 km/h 89 % 0 mm
10:00 -11.7 °C -12.7 °C 34086.9 hPa East 15.6 km/h 11.6 km/h 89 % 0 mm
10:05 -11.7 °C -12.6 °C 34086.9 hPa East 19.6 km/h 11.6 km/h 89 % 0 mm
10:10 -11.6 °C -12.6 °C 34086.9 hPa North 20.9 km/h 14 km/h 89 % 0 mm
10:15 -11.6 °C -12.6 °C 34086.9 hPa West 17.9 km/h 9.8 km/h 89 % 0 mm
10:20 -11.5 °C -12.4 °C 34083.5 hPa North 17.9 km/h 9.8 km/h 89 % 0 mm
10:25 -11.4 °C -12.4 °C 34090.2 hPa West 15.6 km/h 9.8 km/h 89 % 0 mm
10:30 -11.4 °C -12.4 °C 34090.2 hPa West 19.6 km/h 11.6 km/h 89 % 0 mm
10:35 -11.4 °C -12.4 °C 34086.9 hPa East 17.9 km/h 9.8 km/h 89 % 0 mm
10:40 -11.4 °C -12.4 °C 34090.2 hPa West 20.9 km/h 11.6 km/h 89 % 0 mm
10:45 -11.4 °C -12.4 °C 34086.9 hPa East 20.9 km/h 8 km/h 89 % 0 mm
10:50 -11.3 °C -12.3 °C 34083.5 hPa SE 11.9 km/h 8 km/h 89 % 0 mm
10:55 -11.3 °C -12.3 °C 34086.9 hPa East 20.9 km/h 14 km/h 89 % 0 mm
11:00 -11.3 °C -12.3 °C 34086.9 hPa East 15.6 km/h 8 km/h 89 % 0 mm
11:05 -11.2 °C -12.2 °C 34090.2 hPa East 15.6 km/h 4.2 km/h 89 % 0 mm
11:10 -11.2 °C -12.2 °C 34083.5 hPa East 15 km/h 8 km/h 89 % 0 mm
11:15 -11.2 °C -12.2 °C 34083.5 hPa East 20.9 km/h 11.6 km/h 89 % 0 mm
11:20 -11.2 °C -12.1 °C 34086.9 hPa East 15 km/h 9.8 km/h 89 % 0 mm
11:25 -11.2 °C -12.2 °C 34083.5 hPa East 19.6 km/h 11.6 km/h 89 % 0 mm
11:30 -11.2 °C -12.2 °C 34080.1 hPa East 15.6 km/h 8 km/h 89 % 0 mm
11:35 -11.2 °C -12.2 °C 34083.5 hPa East 15 km/h 8 km/h 89 % 0 mm
11:40 -11.1 °C -12.1 °C 34080.1 hPa East 17.9 km/h 11.6 km/h 89 % 0 mm
11:45 -11.1 °C -12.1 °C 34076.7 hPa East 17.9 km/h 9.8 km/h 89 % 0 mm
11:50 -11.1 °C -12.1 °C 34069.9 hPa SE 17.9 km/h 11.6 km/h 89 % 0 mm
11:55 -11 °C -12 °C 34066.5 hPa East 14 km/h 8 km/h 89 % 0 mm
12:00 -11.1 °C -12.1 °C 34063.2 hPa East 20.9 km/h 8 km/h 89 % 0 mm
12:05 -11.1 °C -12.1 °C 34063.2 hPa East 15 km/h 4.2 km/h 89 % 0 mm
12:10 -11.1 °C -12.1 °C 34059.8 hPa SE 11.9 km/h 4.2 km/h 89 % 0 mm
12:15 -11.1 °C -12.1 °C 34056.4 hPa East 6 km/h 4.2 km/h 89 % 0 mm
12:20 -11 °C -12 °C 34053 hPa SE 11.9 km/h 5.6 km/h 89 % 0 mm
12:25 -10.9 °C -11.9 °C 34053 hPa South 14 km/h 9.8 km/h 89 % 0 mm
12:30 -10.8 °C -11.8 °C 34049.6 hPa SE 17.9 km/h 11.6 km/h 89 % 0 mm
12:35 -10.7 °C -11.9 °C 34046.2 hPa East 19.6 km/h 14 km/h 87 % 0 mm
12:40 -10.7 °C -11.8 °C 34046.2 hPa East 15 km/h 8 km/h 87 % 0 mm
12:45 -10.6 °C -11.9 °C 34039.5 hPa SE 15.6 km/h 9.8 km/h 86 % 0 mm
12:50 -10.6 °C -11.9 °C 34036.1 hPa SE 19.6 km/h 9.8 km/h 85 % 0 mm
12:55 -10.5 °C -12 °C 34036.1 hPa East 21.6 km/h 17.9 km/h 84 % 0 mm
13:00 -10.5 °C -11.9 °C 34032.7 hPa East 17.9 km/h 9.8 km/h 85 % 0 mm
13:05 -10.4 °C -11.8 °C 34032.7 hPa SE 20.9 km/h 14 km/h 84 % 0 mm
13:10 -10.3 °C -12.1 °C 34025.9 hPa South 32.8 km/h 17.9 km/h 81 % 0 mm
13:15 -10.3 °C -12.2 °C 34025.9 hPa South 21.6 km/h 15.6 km/h 80 % 0 mm
13:20 -10.2 °C -12 °C 34022.5 hPa South 20.9 km/h 9.8 km/h 81 % 0 mm
13:25 -10.2 °C -12.1 °C 34025.9 hPa SE 26.9 km/h 14 km/h 80 % 0 mm
13:30 -10.2 °C -12.1 °C 34025.9 hPa East 35.4 km/h 25.4 km/h 80 % 0 mm
13:35 -10.2 °C -12.2 °C 34019.1 hPa SE 35.4 km/h 23.8 km/h 79 % 0 mm
13:40 -10.3 °C -12.3 °C 34015.8 hPa SE 38.8 km/h 21.6 km/h 79 % 0 mm
13:45 -10.3 °C -12.4 °C 34015.8 hPa SE 29.8 km/h 21.6 km/h 78 % 0 mm
13:50 -10.3 °C -12.3 °C 34019.1 hPa South 32.8 km/h 17.9 km/h 79 % 0 mm
13:55 -10.3 °C -12.3 °C 34015.8 hPa South 25.4 km/h 19.6 km/h 79 % 0 mm
14:00 -10.3 °C -12.2 °C 34015.8 hPa SSE 23.8 km/h 14 km/h 80 % 0 mm
14:05 -10.3 °C -12.1 °C 34015.8 hPa SE 20.9 km/h 11.6 km/h 81 % 0 mm
14:10 -10.3 °C -12.2 °C 34009 hPa SE 33.6 km/h 19.6 km/h 80 % 0 mm
14:15 -10.4 °C -12.4 °C 34012.4 hPa South 33.6 km/h 19.6 km/h 79 % 0 mm
14:20 -10.3 °C -12.4 °C 34009 hPa SE 32.8 km/h 19.6 km/h 78 % 0 mm
14:25 -10.4 °C -12.4 °C 34009 hPa SE 33.6 km/h 21.6 km/h 79 % 0 mm
14:30 -10.4 °C -12.4 °C 34009 hPa SE 35.7 km/h 19.6 km/h 79 % 0 mm
14:35 -10.4 °C -12.4 °C 34009 hPa SW 26.9 km/h 15.6 km/h 79 % 0 mm
14:40 -10.4 °C -12.4 °C 34009 hPa South 33.6 km/h 23.8 km/h 79 % 0 mm
14:45 -10.4 °C -12.4 °C 34009 hPa SE 29.8 km/h 11.6 km/h 79 % 0 mm
14:50 -10.4 °C -12.3 °C 34002.2 hPa South 20.9 km/h 9.8 km/h 80 % 0 mm
14:55 -10.6 °C -12.4 °C 34005.6 hPa East 23.8 km/h 9.8 km/h 81 % 0 mm
15:00 -10.5 °C -12.3 °C 34002.2 hPa South 38.8 km/h 17.9 km/h 81 % 0 mm
15:05 -10.6 °C -12.3 °C 34005.6 hPa SE 35.4 km/h 23.8 km/h 81 % 0 mm
15:10 -10.6 °C -12.3 °C 34002.2 hPa South 26.9 km/h 14 km/h 82 % 0 mm
15:15 -10.7 °C -12.4 °C 34002.2 hPa SE 41.7 km/h 29.5 km/h 81 % 0 mm
15:20 -10.8 °C -12.3 °C 34002.2 hPa SE 44.7 km/h 27.7 km/h 83 % 0 mm
15:25 -10.9 °C -12.3 °C 34002.2 hPa South 37.5 km/h 29.5 km/h 85 % 0 mm
15:30 -11 °C -12.3 °C 34002.2 hPa SE 35.7 km/h 21.6 km/h 86 % 0 mm
15:35 -11.1 °C -12.2 °C 34002.2 hPa East 29.5 km/h 17.9 km/h 87 % 0 mm
15:40 -11.1 °C -12.1 °C 34002.2 hPa South 32.8 km/h 11.6 km/h 89 % 0 mm
15:45 -11.2 °C -12.2 °C 34002.2 hPa South 32.8 km/h 17.9 km/h 89 % 0 mm
15:50 -11.3 °C -12.3 °C 34005.6 hPa SE 26.9 km/h 14 km/h 89 % 0 mm
15:55 -11.4 °C -12.4 °C 34005.6 hPa SE 15 km/h 5.6 km/h 89 % 0 mm
16:00 -11.4 °C -12.4 °C 34002.2 hPa East 20.9 km/h 14 km/h 89 % 0 mm
16:05 -11.5 °C -12.4 °C 33998.8 hPa East 21.6 km/h 9.8 km/h 89 % 0 mm
16:10 -11.6 °C -12.6 °C 33998.8 hPa East 15 km/h 9.8 km/h 89 % 0 mm
16:15 -11.6 °C -12.6 °C 33998.8 hPa East 15 km/h 4.2 km/h 89 % 7.62 mm
16:20 -11.7 °C -12.6 °C 33998.8 hPa SE 11.9 km/h 8 km/h 89 % 7.62 mm
16:25 -11.7 °C -12.6 °C 33995.4 hPa East 14 km/h 5.6 km/h 89 % 7.62 mm
16:30 -11.7 °C -12.6 °C 33998.8 hPa East 9.8 km/h 4.2 km/h 89 % 7.62 mm
16:35 -11.7 °C -12.6 °C 33998.8 hPa East 11.6 km/h 8 km/h 89 % 7.62 mm
16:40 -11.7 °C -12.6 °C 33995.4 hPa East 14 km/h 8 km/h 89 % 7.62 mm
16:45 -11.7 °C -12.7 °C 34002.2 hPa East 15.6 km/h 9.8 km/h 89 % 7.62 mm
16:50 -11.7 °C -12.6 °C 33998.8 hPa East 17.9 km/h 11.6 km/h 89 % 12.7 mm
16:55 -11.7 °C -12.7 °C 33995.4 hPa East 19.6 km/h 11.6 km/h 89 % 12.7 mm
17:00 -11.7 °C -12.7 °C 33995.4 hPa East 20.9 km/h 8 km/h 89 % 12.7 mm
17:05 -11.8 °C -12.7 °C 33995.4 hPa East 15 km/h 8 km/h 89 % 25.4 mm
17:10 -11.8 °C -12.7 °C 33992.1 hPa East 20.9 km/h 11.6 km/h 89 % 25.4 mm
17:15 -11.8 °C -12.8 °C 33992.1 hPa East 19.6 km/h 11.6 km/h 89 % 12.7 mm
17:20 -11.8 °C -12.8 °C 33992.1 hPa East 20.9 km/h 8 km/h 89 % 25.4 mm
17:25 -11.9 °C -12.8 °C 33992.1 hPa East 11.9 km/h 5.6 km/h 89 % 25.4 mm
17:30 -11.9 °C -12.8 °C 33992.1 hPa West 11.9 km/h 8 km/h 89 % 25.4 mm
17:35 -11.9 °C -12.9 °C 33992.1 hPa East 11.6 km/h 5.6 km/h 89 % 33.02 mm
17:40 -12 °C -12.9 °C 33992.1 hPa East 15 km/h 8 km/h 89 % 33.02 mm
17:45 -12 °C -12.9 °C 33992.1 hPa East 15.6 km/h 9.8 km/h 89 % 38.1 mm
17:50 -12.1 °C -13 °C 33995.4 hPa East 15.6 km/h 11.6 km/h 89 % 33.02 mm
17:55 -12.1 °C -13 °C 33988.7 hPa East 15.6 km/h 11.6 km/h 89 % 33.02 mm
18:00 -12.1 °C -13 °C 33992.1 hPa North 15 km/h 5.6 km/h 89 % 33.02 mm
18:05 -12.1 °C -13.1 °C 33992.1 hPa East 17.9 km/h 11.6 km/h 89 % 33.02 mm
18:10 -12.1 °C -13 °C 33992.1 hPa West 15.6 km/h 11.6 km/h 89 % 33.02 mm
18:15 -12.1 °C -13.1 °C 33992.1 hPa West 15 km/h 5.6 km/h 89 % 33.02 mm
18:20 -12.1 °C -13.1 °C 33992.1 hPa West 17.9 km/h 9.8 km/h 89 % 33.02 mm
18:25 -12.1 °C -13.1 °C 33992.1 hPa North 15.6 km/h 9.8 km/h 89 % 33.02 mm
18:30 -12.2 °C -13.1 °C 33992.1 hPa North 17.9 km/h 14 km/h 89 % 38.1 mm
18:35 -12.2 °C -13.1 °C 33988.7 hPa North 20.9 km/h 14 km/h 89 % 33.02 mm
18:40 -12.2 °C -13.1 °C 33988.7 hPa North 15 km/h 8 km/h 89 % 33.02 mm
18:45 -12.2 °C -13.1 °C 33988.7 hPa North 15.6 km/h 9.8 km/h 89 % 25.4 mm
18:50 -12.2 °C -13.1 °C 33985.3 hPa North 15 km/h 8 km/h 89 % 25.4 mm
18:55 -12.2 °C -13.1 °C 33988.7 hPa East 15.6 km/h 11.6 km/h 89 % 33.02 mm
19:00 -12.2 °C -13.1 °C 33988.7 hPa East 15 km/h 8 km/h 89 % 33.02 mm
19:05 -12.2 °C -13.2 °C 33981.9 hPa East 20.9 km/h 11.6 km/h 89 % 33.02 mm
19:10 -12.2 °C -13.1 °C 33988.7 hPa NW 20.9 km/h 11.6 km/h 89 % 33.02 mm
19:15 -12.2 °C -13.1 °C 33988.7 hPa East 15 km/h 8 km/h 89 % 33.02 mm
19:20 -12.2 °C -13.2 °C 33988.7 hPa North 15 km/h 9.8 km/h 89 % 25.4 mm
19:25 -12.2 °C -13.1 °C 33981.9 hPa West 23.8 km/h 9.8 km/h 89 % 33.02 mm
19:30 -12.2 °C -13.2 °C 33985.3 hPa East 17.9 km/h 14 km/h 89 % 25.4 mm
19:35 -12.2 °C -13.2 °C 33981.9 hPa West 17.9 km/h 11.6 km/h 89 % 25.4 mm
19:40 -12.2 °C -13.2 °C 33985.3 hPa East 23.8 km/h 8 km/h 89 % 25.4 mm
19:45 -12.2 °C -13.1 °C 33988.7 hPa East 17.9 km/h 9.8 km/h 89 % 25.4 mm
19:50 -12.2 °C -13.1 °C 33985.3 hPa East 17.9 km/h 9.8 km/h 89 % 25.4 mm
19:55 -12.2 °C -13.1 °C 33981.9 hPa East 15 km/h 5.6 km/h 89 % 12.7 mm
20:00 -12.2 °C -13.2 °C 33985.3 hPa North 15.6 km/h 9.8 km/h 89 % 25.4 mm
20:05 -12.2 °C -13.1 °C 33985.3 hPa North 11.9 km/h 8 km/h 89 % 25.4 mm
20:10 -12.2 °C -13.2 °C 33988.7 hPa East 15.6 km/h 11.6 km/h 89 % 25.4 mm
20:15 -12.2 °C -13.2 °C 33985.3 hPa WNW 17.9 km/h 11.6 km/h 89 % 33.02 mm
meteodaganzo
Elogios de Weather Underground - 2.75 mb

Guión original por  Jim McMurry - jmcmurry@mwt.net Adaptado para la plantilla por  Wim van der Kuil - Leuven-Template.eu

Usted encontrará nuestra información del tiempo también en:

WeatherCloud

Weather Underground

Iberian Peninsula Weather Network

AWEKAS

Citizen Weather Observer Program (CWOP)